sensor_id;sensor_type;location;lat;lon;timestamp;temperature;humidity
46117;DHT22;32591;48.102;11.772;2023-04-26T00:00:30;6.60;99.90
46117;DHT22;32591;48.102;11.772;2023-04-26T00:02:59;6.60;99.90
46117;DHT22;32591;48.102;11.772;2023-04-26T00:05:28;6.60;99.90
46117;DHT22;32591;48.102;11.772;2023-04-26T00:07:55;6.60;99.90
46117;DHT22;32591;48.102;11.772;2023-04-26T00:10:23;6.60;99.90
46117;DHT22;32591;48.102;11.772;2023-04-26T00:12:50;6.60;99.90
46117;DHT22;32591;48.102;11.772;2023-04-26T00:15:17;6.60;99.90
46117;DHT22;32591;48.102;11.772;2023-04-26T00:17:44;6.60;99.90
46117;DHT22;32591;48.102;11.772;2023-04-26T00:20:13;6.60;99.90
46117;DHT22;32591;48.102;11.772;2023-04-26T00:22:40;6.70;99.90
46117;DHT22;32591;48.102;11.772;2023-04-26T00:25:08;6.70;99.90
46117;DHT22;32591;48.102;11.772;2023-04-26T00:27:35;6.70;99.90
46117;DHT22;32591;48.102;11.772;2023-04-26T00:30:03;6.70;99.90
46117;DHT22;32591;48.102;11.772;2023-04-26T00:32:31;6.70;99.90
46117;DHT22;32591;48.102;11.772;2023-04-26T00:35:01;6.80;99.90
46117;DHT22;32591;48.102;11.772;2023-04-26T00:37:30;6.80;99.90
46117;DHT22;32591;48.102;11.772;2023-04-26T00:39:57;6.70;99.90
46117;DHT22;32591;48.102;11.772;2023-04-26T00:42:25;6.70;99.90
46117;DHT22;32591;48.102;11.772;2023-04-26T00:44:52;6.60;99.90
46117;DHT22;32591;48.102;11.772;2023-04-26T00:47:22;6.60;99.90
46117;DHT22;32591;48.102;11.772;2023-04-26T00:49:50;6.60;99.90
46117;DHT22;32591;48.102;11.772;2023-04-26T00:52:17;6.50;99.90
46117;DHT22;32591;48.102;11.772;2023-04-26T00:54:47;6.50;99.90
46117;DHT22;32591;48.102;11.772;2023-04-26T00:57:14;6.40;99.90
46117;DHT22;32591;48.102;11.772;2023-04-26T00:59:41;6.30;99.90
46117;DHT22;32591;48.102;11.772;2023-04-26T01:02:08;6.20;99.90
46117;DHT22;32591;48.102;11.772;2023-04-26T01:04:35;6.20;99.90
46117;DHT22;32591;48.102;11.772;2023-04-26T01:07:02;6.30;99.90
46117;DHT22;32591;48.102;11.772;2023-04-26T01:09:31;6.30;99.90
46117;DHT22;32591;48.102;11.772;2023-04-26T01:12:00;6.40;99.90
46117;DHT22;32591;48.102;11.772;2023-04-26T01:14:27;6.50;99.90
46117;DHT22;32591;48.102;11.772;2023-04-26T01:16:55;6.60;99.90
46117;DHT22;32591;48.102;11.772;2023-04-26T01:19:22;6.60;99.90
46117;DHT22;32591;48.102;11.772;2023-04-26T01:21:50;6.60;99.90
46117;DHT22;32591;48.102;11.772;2023-04-26T01:24:18;6.60;99.90
46117;DHT22;32591;48.102;11.772;2023-04-26T01:26:45;6.60;99.90
46117;DHT22;32591;48.102;11.772;2023-04-26T01:29:16;6.60;99.90
46117;DHT22;32591;48.102;11.772;2023-04-26T01:31:44;6.60;99.90
46117;DHT22;32591;48.102;11.772;2023-04-26T01:38:11;6.60;99.90
46117;DHT22;32591;48.102;11.772;2023-04-26T01:40:40;6.50;99.90
46117;DHT22;32591;48.102;11.772;2023-04-26T01:43:10;6.40;99.90
46117;DHT22;32591;48.102;11.772;2023-04-26T01:45:37;6.40;99.90
46117;DHT22;32591;48.102;11.772;2023-04-26T01:48:05;6.50;99.90
46117;DHT22;32591;48.102;11.772;2023-04-26T01:50:33;6.50;99.90
46117;DHT22;32591;48.102;11.772;2023-04-26T01:53:00;6.50;99.90
46117;DHT22;32591;48.102;11.772;2023-04-26T01:55:27;6.50;99.90
46117;DHT22;32591;48.102;11.772;2023-04-26T01:57:55;6.40;99.90
46117;DHT22;32591;48.102;11.772;2023-04-26T02:00:22;6.30;99.90
46117;DHT22;32591;48.102;11.772;2023-04-26T02:02:49;6.30;99.90
46117;DHT22;32591;48.102;11.772;2023-04-26T02:05:20;6.30;99.90
46117;DHT22;32591;48.102;11.772;2023-04-26T02:07:48;6.30;99.90
46117;DHT22;32591;48.102;11.772;2023-04-26T02:10:15;6.20;99.90
46117;DHT22;32591;48.102;11.772;2023-04-26T02:12:42;6.10;99.90
46117;DHT22;32591;48.102;11.772;2023-04-26T02:15:10;6.10;99.90
46117;DHT22;32591;48.102;11.772;2023-04-26T02:17:37;6.00;99.90
46117;DHT22;32591;48.102;11.772;2023-04-26T02:20:05;6.00;99.90
46117;DHT22;32591;48.102;11.772;2023-04-26T02:22:34;6.00;99.90
46117;DHT22;32591;48.102;11.772;2023-04-26T02:25:02;6.00;99.90
46117;DHT22;32591;48.102;11.772;2023-04-26T02:27:29;6.00;99.90
46117;DHT22;32591;48.102;11.772;2023-04-26T02:29:57;5.90;99.90
46117;DHT22;32591;48.102;11.772;2023-04-26T02:32:25;5.90;99.90
46117;DHT22;32591;48.102;11.772;2023-04-26T02:34:52;5.90;99.90
46117;DHT22;32591;48.102;11.772;2023-04-26T02:37:19;5.90;99.90
46117;DHT22;32591;48.102;11.772;2023-04-26T02:39:48;5.80;99.90
46117;DHT22;32591;48.102;11.772;2023-04-26T02:42:16;5.80;99.90
46117;DHT22;32591;48.102;11.772;2023-04-26T02:44:43;5.70;99.90
46117;DHT22;32591;48.102;11.772;2023-04-26T02:47:10;5.50;99.90
46117;DHT22;32591;48.102;11.772;2023-04-26T02:49:39;5.40;99.90
46117;DHT22;32591;48.102;11.772;2023-04-26T02:52:05;5.40;99.90
46117;DHT22;32591;48.102;11.772;2023-04-26T02:54:32;5.30;99.90
46117;DHT22;32591;48.102;11.772;2023-04-26T02:56:59;5.40;99.90
46117;DHT22;32591;48.102;11.772;2023-04-26T02:59:26;5.40;99.90
46117;DHT22;32591;48.102;11.772;2023-04-26T03:09:20;5.60;99.90
46117;DHT22;32591;48.102;11.772;2023-04-26T03:11:48;5.60;99.90
46117;DHT22;32591;48.102;11.772;2023-04-26T03:14:15;5.60;99.90
46117;DHT22;32591;48.102;11.772;2023-04-26T03:16:43;5.50;99.90
46117;DHT22;32591;48.102;11.772;2023-04-26T03:19:10;5.50;99.90
46117;DHT22;32591;48.102;11.772;2023-04-26T03:21:37;5.50;99.90
46117;DHT22;32591;48.102;11.772;2023-04-26T03:24:04;5.50;99.90
46117;DHT22;32591;48.102;11.772;2023-04-26T03:26:33;5.50;99.90
46117;DHT22;32591;48.102;11.772;2023-04-26T03:29:01;5.50;99.90
46117;DHT22;32591;48.102;11.772;2023-04-26T03:31:28;5.50;99.90
46117;DHT22;32591;48.102;11.772;2023-04-26T03:33:55;5.50;99.90
46117;DHT22;32591;48.102;11.772;2023-04-26T03:36:22;5.60;99.90
46117;DHT22;32591;48.102;11.772;2023-04-26T03:38:49;5.50;99.90
46117;DHT22;32591;48.102;11.772;2023-04-26T03:41:17;5.50;99.90
46117;DHT22;32591;48.102;11.772;2023-04-26T03:43:45;5.40;99.90
46117;DHT22;32591;48.102;11.772;2023-04-26T03:46:12;5.50;99.90
46117;DHT22;32591;48.102;11.772;2023-04-26T03:48:39;5.50;99.90
46117;DHT22;32591;48.102;11.772;2023-04-26T03:51:06;5.50;99.90
46117;DHT22;32591;48.102;11.772;2023-04-26T03:53:33;5.50;99.90
46117;DHT22;32591;48.102;11.772;2023-04-26T03:56:00;5.50;99.90
46117;DHT22;32591;48.102;11.772;2023-04-26T03:58:27;5.60;99.90
46117;DHT22;32591;48.102;11.772;2023-04-26T04:00:56;5.60;99.90
46117;DHT22;32591;48.102;11.772;2023-04-26T04:03:24;5.70;99.90
46117;DHT22;32591;48.102;11.772;2023-04-26T04:05:50;5.70;99.90
46117;DHT22;32591;48.102;11.772;2023-04-26T04:08:17;5.70;99.90
46117;DHT22;32591;48.102;11.772;2023-04-26T04:10:44;5.80;99.90
46117;DHT22;32591;48.102;11.772;2023-04-26T04:13:11;5.80;99.90
46117;DHT22;32591;48.102;11.772;2023-04-26T04:15:38;5.90;99.90
46117;DHT22;32591;48.102;11.772;2023-04-26T04:18:06;5.80;99.90
46117;DHT22;32591;48.102;11.772;2023-04-26T04:20:33;5.80;99.90
46117;DHT22;32591;48.102;11.772;2023-04-26T04:23:00;5.70;99.90
46117;DHT22;32591;48.102;11.772;2023-04-26T04:25:30;5.70;99.90
46117;DHT22;32591;48.102;11.772;2023-04-26T04:27:57;5.70;99.90
46117;DHT22;32591;48.102;11.772;2023-04-26T04:30:26;5.50;99.90
46117;DHT22;32591;48.102;11.772;2023-04-26T04:32:53;5.50;99.90
46117;DHT22;32591;48.102;11.772;2023-04-26T04:35:24;5.60;99.90
46117;DHT22;32591;48.102;11.772;2023-04-26T04:37:53;5.60;99.90
46117;DHT22;32591;48.102;11.772;2023-04-26T04:40:23;5.70;99.90
46117;DHT22;32591;48.102;11.772;2023-04-26T04:42:50;5.60;99.90
46117;DHT22;32591;48.102;11.772;2023-04-26T04:45:19;5.60;99.90
46117;DHT22;32591;48.102;11.772;2023-04-26T04:47:46;5.70;99.90
46117;DHT22;32591;48.102;11.772;2023-04-26T04:50:13;5.70;99.90
46117;DHT22;32591;48.102;11.772;2023-04-26T04:52:41;5.70;99.90
46117;DHT22;32591;48.102;11.772;2023-04-26T04:55:09;5.80;99.90
46117;DHT22;32591;48.102;11.772;2023-04-26T04:57:35;5.70;99.90
46117;DHT22;32591;48.102;11.772;2023-04-26T05:00:04;5.70;99.90
46117;DHT22;32591;48.102;11.772;2023-04-26T05:02:35;5.70;99.90
46117;DHT22;32591;48.102;11.772;2023-04-26T05:05:02;5.80;99.90
46117;DHT22;32591;48.102;11.772;2023-04-26T05:07:30;5.80;99.90
46117;DHT22;32591;48.102;11.772;2023-04-26T05:09:58;5.80;99.90
46117;DHT22;32591;48.102;11.772;2023-04-26T05:12:26;5.80;99.90
46117;DHT22;32591;48.102;11.772;2023-04-26T05:14:53;5.80;99.90
46117;DHT22;32591;48.102;11.772;2023-04-26T05:17:19;5.70;99.90
46117;DHT22;32591;48.102;11.772;2023-04-26T05:19:46;7.20;99.90
46117;DHT22;32591;48.102;11.772;2023-04-26T05:22:13;7.00;99.90
46117;DHT22;32591;48.102;11.772;2023-04-26T05:24:44;6.80;99.90
46117;DHT22;32591;48.102;11.772;2023-04-26T05:27:13;6.60;99.90
46117;DHT22;32591;48.102;11.772;2023-04-26T05:29:40;6.50;99.90
46117;DHT22;32591;48.102;11.772;2023-04-26T05:32:07;6.40;99.90
46117;DHT22;32591;48.102;11.772;2023-04-26T05:34:34;6.30;99.90
46117;DHT22;32591;48.102;11.772;2023-04-26T05:37:03;6.10;99.90
46117;DHT22;32591;48.102;11.772;2023-04-26T05:39:30;6.10;99.90
46117;DHT22;32591;48.102;11.772;2023-04-26T05:41:57;6.00;99.90
46117;DHT22;32591;48.102;11.772;2023-04-26T05:44:25;6.00;99.90
46117;DHT22;32591;48.102;11.772;2023-04-26T05:46:52;5.90;99.90
46117;DHT22;32591;48.102;11.772;2023-04-26T05:49:18;5.80;99.90
46117;DHT22;32591;48.102;11.772;2023-04-26T05:51:46;5.90;99.90
46117;DHT22;32591;48.102;11.772;2023-04-26T05:54:13;5.90;99.90
46117;DHT22;32591;48.102;11.772;2023-04-26T05:56:40;5.90;99.90
46117;DHT22;32591;48.102;11.772;2023-04-26T05:59:07;5.80;99.90
46117;DHT22;32591;48.102;11.772;2023-04-26T06:01:36;5.90;99.90
46117;DHT22;32591;48.102;11.772;2023-04-26T06:04:03;5.90;99.90
46117;DHT22;32591;48.102;11.772;2023-04-26T06:06:31;5.90;99.90
46117;DHT22;32591;48.102;11.772;2023-04-26T06:08:57;5.80;99.90
46117;DHT22;32591;48.102;11.772;2023-04-26T06:11:25;5.80;99.90
46117;DHT22;32591;48.102;11.772;2023-04-26T06:13:52;5.70;99.90
46117;DHT22;32591;48.102;11.772;2023-04-26T06:16:19;5.70;99.90
46117;DHT22;32591;48.102;11.772;2023-04-26T06:18:48;5.80;99.90
46117;DHT22;32591;48.102;11.772;2023-04-26T06:21:15;5.90;99.90
46117;DHT22;32591;48.102;11.772;2023-04-26T06:23:42;5.90;99.90
46117;DHT22;32591;48.102;11.772;2023-04-26T06:26:09;6.00;99.90
46117;DHT22;32591;48.102;11.772;2023-04-26T06:28:36;6.00;99.90
46117;DHT22;32591;48.102;11.772;2023-04-26T06:31:03;6.10;99.90
46117;DHT22;32591;48.102;11.772;2023-04-26T06:33:30;6.10;99.90
46117;DHT22;32591;48.102;11.772;2023-04-26T06:35:58;6.10;99.90
46117;DHT22;32591;48.102;11.772;2023-04-26T06:38:25;6.10;99.90
46117;DHT22;32591;48.102;11.772;2023-04-26T06:40:52;6.10;99.90
46117;DHT22;32591;48.102;11.772;2023-04-26T06:43:19;6.10;99.90
46117;DHT22;32591;48.102;11.772;2023-04-26T06:45:46;6.20;99.90
46117;DHT22;32591;48.102;11.772;2023-04-26T06:48:13;6.40;99.90
46117;DHT22;32591;48.102;11.772;2023-04-26T06:50:40;6.30;99.90
46117;DHT22;32591;48.102;11.772;2023-04-26T06:53:08;6.30;99.90
46117;DHT22;32591;48.102;11.772;2023-04-26T06:55:35;6.30;99.90
46117;DHT22;32591;48.102;11.772;2023-04-26T06:58:03;6.40;99.90
46117;DHT22;32591;48.102;11.772;2023-04-26T07:00:30;6.30;99.90
46117;DHT22;32591;48.102;11.772;2023-04-26T07:02:57;6.40;99.90
46117;DHT22;32591;48.102;11.772;2023-04-26T07:05:24;6.50;99.90
46117;DHT22;32591;48.102;11.772;2023-04-26T07:07:51;6.60;99.90
46117;DHT22;32591;48.102;11.772;2023-04-26T07:10:20;6.70;99.90
46117;DHT22;32591;48.102;11.772;2023-04-26T07:12:47;6.70;99.90
46117;DHT22;32591;48.102;11.772;2023-04-26T07:15:14;6.80;99.90
46117;DHT22;32591;48.102;11.772;2023-04-26T07:17:41;6.80;99.90
46117;DHT22;32591;48.102;11.772;2023-04-26T07:20:09;6.90;99.90
46117;DHT22;32591;48.102;11.772;2023-04-26T07:22:37;7.00;99.90
46117;DHT22;32591;48.102;11.772;2023-04-26T07:25:05;6.90;99.90
46117;DHT22;32591;48.102;11.772;2023-04-26T07:27:33;6.70;99.90
46117;DHT22;32591;48.102;11.772;2023-04-26T07:30:00;6.90;99.90
46117;DHT22;32591;48.102;11.772;2023-04-26T07:32:27;7.00;99.90
46117;DHT22;32591;48.102;11.772;2023-04-26T07:34:54;6.90;99.90
46117;DHT22;32591;48.102;11.772;2023-04-26T07:37:21;6.80;99.90
46117;DHT22;32591;48.102;11.772;2023-04-26T07:39:48;6.90;99.90
46117;DHT22;32591;48.102;11.772;2023-04-26T07:42:15;7.00;99.90
46117;DHT22;32591;48.102;11.772;2023-04-26T07:44:43;7.30;99.90
46117;DHT22;32591;48.102;11.772;2023-04-26T07:47:11;7.40;99.90
46117;DHT22;32591;48.102;11.772;2023-04-26T07:49:39;7.60;99.90
46117;DHT22;32591;48.102;11.772;2023-04-26T07:52:07;7.60;99.90
46117;DHT22;32591;48.102;11.772;2023-04-26T07:54:34;7.60;99.90
46117;DHT22;32591;48.102;11.772;2023-04-26T07:57:01;7.50;99.90
46117;DHT22;32591;48.102;11.772;2023-04-26T07:59:28;7.40;99.90
46117;DHT22;32591;48.102;11.772;2023-04-26T08:01:57;7.40;99.90
46117;DHT22;32591;48.102;11.772;2023-04-26T08:04:31;7.50;99.90
46117;DHT22;32591;48.102;11.772;2023-04-26T08:06:59;7.60;99.90
46117;DHT22;32591;48.102;11.772;2023-04-26T08:09:27;7.60;99.90
46117;DHT22;32591;48.102;11.772;2023-04-26T08:11:55;7.80;99.90
46117;DHT22;32591;48.102;11.772;2023-04-26T08:14:22;8.00;99.90
46117;DHT22;32591;48.102;11.772;2023-04-26T08:16:49;8.10;99.90
46117;DHT22;32591;48.102;11.772;2023-04-26T08:19:18;8.20;99.90
46117;DHT22;32591;48.102;11.772;2023-04-26T08:21:45;8.50;99.90
46117;DHT22;32591;48.102;11.772;2023-04-26T08:24:12;8.70;99.90
46117;DHT22;32591;48.102;11.772;2023-04-26T08:26:39;8.80;99.90
46117;DHT22;32591;48.102;11.772;2023-04-26T08:29:06;8.80;99.90
46117;DHT22;32591;48.102;11.772;2023-04-26T08:31:33;8.80;99.90
46117;DHT22;32591;48.102;11.772;2023-04-26T08:34:00;8.90;99.90
46117;DHT22;32591;48.102;11.772;2023-04-26T08:36:28;9.10;99.90
46117;DHT22;32591;48.102;11.772;2023-04-26T08:38:56;9.20;99.90
46117;DHT22;32591;48.102;11.772;2023-04-26T08:41:24;9.30;99.90
46117;DHT22;32591;48.102;11.772;2023-04-26T08:43:53;9.40;99.90
46117;DHT22;32591;48.102;11.772;2023-04-26T08:46:24;9.30;99.90
46117;DHT22;32591;48.102;11.772;2023-04-26T08:48:57;9.20;99.90
46117;DHT22;32591;48.102;11.772;2023-04-26T08:51:32;9.00;99.90
46117;DHT22;32591;48.102;11.772;2023-04-26T08:54:00;9.00;99.90
46117;DHT22;32591;48.102;11.772;2023-04-26T08:56:29;9.20;99.90
46117;DHT22;32591;48.102;11.772;2023-04-26T08:58:57;9.20;99.90
46117;DHT22;32591;48.102;11.772;2023-04-26T09:01:26;9.20;99.90
46117;DHT22;32591;48.102;11.772;2023-04-26T09:03:54;9.20;99.90
46117;DHT22;32591;48.102;11.772;2023-04-26T09:06:22;9.30;99.90
46117;DHT22;32591;48.102;11.772;2023-04-26T09:08:53;9.70;99.90
46117;DHT22;32591;48.102;11.772;2023-04-26T09:11:20;10.00;99.90
46117;DHT22;32591;48.102;11.772;2023-04-26T09:13:48;10.00;99.90
46117;DHT22;32591;48.102;11.772;2023-04-26T09:16:14;10.10;99.90
46117;DHT22;32591;48.102;11.772;2023-04-26T09:18:47;10.40;99.90
46117;DHT22;32591;48.102;11.772;2023-04-26T09:21:16;10.50;99.90
46117;DHT22;32591;48.102;11.772;2023-04-26T09:23:57;10.40;99.90
46117;DHT22;32591;48.102;11.772;2023-04-26T09:26:26;10.10;99.90
46117;DHT22;32591;48.102;11.772;2023-04-26T09:29:11;10.10;99.90
46117;DHT22;32591;48.102;11.772;2023-04-26T09:31:41;9.80;99.90
46117;DHT22;32591;48.102;11.772;2023-04-26T09:34:09;9.60;99.90
46117;DHT22;32591;48.102;11.772;2023-04-26T09:36:50;9.60;99.90
46117;DHT22;32591;48.102;11.772;2023-04-26T09:39:30;9.60;99.90
46117;DHT22;32591;48.102;11.772;2023-04-26T09:41:58;9.40;99.90
46117;DHT22;32591;48.102;11.772;2023-04-26T09:44:28;9.20;99.90
46117;DHT22;32591;48.102;11.772;2023-04-26T09:47:00;9.10;99.90
46117;DHT22;32591;48.102;11.772;2023-04-26T09:49:31;9.10;99.90
46117;DHT22;32591;48.102;11.772;2023-04-26T09:52:03;9.10;99.90
46117;DHT22;32591;48.102;11.772;2023-04-26T09:54:46;9.20;99.90
46117;DHT22;32591;48.102;11.772;2023-04-26T09:57:15;9.20;99.90
46117;DHT22;32591;48.102;11.772;2023-04-26T09:59:45;9.20;99.90
46117;DHT22;32591;48.102;11.772;2023-04-26T10:02:15;9.10;99.90
46117;DHT22;32591;48.102;11.772;2023-04-26T10:04:45;9.10;99.90
46117;DHT22;32591;48.102;11.772;2023-04-26T10:07:14;9.20;99.90
46117;DHT22;32591;48.102;11.772;2023-04-26T10:09:44;9.20;99.90
46117;DHT22;32591;48.102;11.772;2023-04-26T10:12:13;9.30;99.90
46117;DHT22;32591;48.102;11.772;2023-04-26T10:14:41;9.40;99.90
46117;DHT22;32591;48.102;11.772;2023-04-26T10:17:09;9.40;99.90
46117;DHT22;32591;48.102;11.772;2023-04-26T10:19:38;9.30;99.90
46117;DHT22;32591;48.102;11.772;2023-04-26T10:22:11;9.20;99.90
46117;DHT22;32591;48.102;11.772;2023-04-26T10:24:44;9.30;99.90
46117;DHT22;32591;48.102;11.772;2023-04-26T10:27:11;9.60;99.90
46117;DHT22;32591;48.102;11.772;2023-04-26T10:30:04;10.00;99.90
46117;DHT22;32591;48.102;11.772;2023-04-26T10:36:10;9.80;99.90
46117;DHT22;32591;48.102;11.772;2023-04-26T10:38:39;9.80;99.90
46117;DHT22;32591;48.102;11.772;2023-04-26T10:41:28;9.60;99.90
46117;DHT22;32591;48.102;11.772;2023-04-26T10:44:39;9.50;99.90
46117;DHT22;32591;48.102;11.772;2023-04-26T10:47:19;9.50;99.90
46117;DHT22;32591;48.102;11.772;2023-04-26T10:49:48;9.60;99.90
46117;DHT22;32591;48.102;11.772;2023-04-26T10:52:17;9.60;99.90
46117;DHT22;32591;48.102;11.772;2023-04-26T10:54:57;9.80;99.90
46117;DHT22;32591;48.102;11.772;2023-04-26T10:57:47;10.20;99.90
46117;DHT22;32591;48.102;11.772;2023-04-26T11:00:24;10.70;99.90
46117;DHT22;32591;48.102;11.772;2023-04-26T11:02:55;11.10;99.90
46117;DHT22;32591;48.102;11.772;2023-04-26T11:08:24;11.60;99.70
46117;DHT22;32591;48.102;11.772;2023-04-26T11:11:05;11.70;98.10
46117;DHT22;32591;48.102;11.772;2023-04-26T11:13:36;12.20;98.20
46117;DHT22;32591;48.102;11.772;2023-04-26T11:16:05;12.10;96.80
46117;DHT22;32591;48.102;11.772;2023-04-26T11:18:34;11.70;96.50
46117;DHT22;32591;48.102;11.772;2023-04-26T11:21:04;11.70;97.90
46117;DHT22;32591;48.102;11.772;2023-04-26T11:23:32;11.60;97.30
46117;DHT22;32591;48.102;11.772;2023-04-26T11:26:00;11.60;98.40
46117;DHT22;32591;48.102;11.772;2023-04-26T11:28:29;11.60;96.30
46117;DHT22;32591;48.102;11.772;2023-04-26T11:30:58;11.40;96.80
46117;DHT22;32591;48.102;11.772;2023-04-26T11:33:25;11.30;96.40
46117;DHT22;32591;48.102;11.772;2023-04-26T11:35:54;11.30;96.20
46117;DHT22;32591;48.102;11.772;2023-04-26T11:38:25;11.40;96.30
46117;DHT22;32591;48.102;11.772;2023-04-26T11:40:55;11.70;97.50
46117;DHT22;32591;48.102;11.772;2023-04-26T11:43:29;12.10;96.40
46117;DHT22;32591;48.102;11.772;2023-04-26T11:46:01;12.60;95.50
46117;DHT22;32591;48.102;11.772;2023-04-26T11:48:29;12.80;94.60
46117;DHT22;32591;48.102;11.772;2023-04-26T11:50:57;12.80;91.00
46117;DHT22;32591;48.102;11.772;2023-04-26T11:53:34;12.60;92.00
46117;DHT22;32591;48.102;11.772;2023-04-26T11:56:02;12.40;90.40
46117;DHT22;32591;48.102;11.772;2023-04-26T11:58:29;12.20;92.80
46117;DHT22;32591;48.102;11.772;2023-04-26T12:00:57;12.00;93.30
46117;DHT22;32591;48.102;11.772;2023-04-26T12:03:31;11.60;93.20
46117;DHT22;32591;48.102;11.772;2023-04-26T12:06:02;11.50;94.50
46117;DHT22;32591;48.102;11.772;2023-04-26T12:08:31;11.30;94.00
46117;DHT22;32591;48.102;11.772;2023-04-26T12:10:59;11.40;93.60
46117;DHT22;32591;48.102;11.772;2023-04-26T12:13:27;11.40;94.00
46117;DHT22;32591;48.102;11.772;2023-04-26T12:15:55;11.50;97.20
46117;DHT22;32591;48.102;11.772;2023-04-26T12:18:29;11.60;98.30
46117;DHT22;32591;48.102;11.772;2023-04-26T12:20:58;11.60;97.60
46117;DHT22;32591;48.102;11.772;2023-04-26T12:23:26;11.40;97.80
46117;DHT22;32591;48.102;11.772;2023-04-26T12:25:55;11.30;99.90
46117;DHT22;32591;48.102;11.772;2023-04-26T12:28:26;11.40;98.90
46117;DHT22;32591;48.102;11.772;2023-04-26T12:30:53;11.30;99.80
46117;DHT22;32591;48.102;11.772;2023-04-26T12:33:20;11.20;99.90
46117;DHT22;32591;48.102;11.772;2023-04-26T12:35:51;11.30;98.90
46117;DHT22;32591;48.102;11.772;2023-04-26T12:38:18;11.30;98.90
46117;DHT22;32591;48.102;11.772;2023-04-26T12:40:48;11.60;97.30
46117;DHT22;32591;48.102;11.772;2023-04-26T12:43:15;11.80;96.10
46117;DHT22;32591;48.102;11.772;2023-04-26T12:45:44;12.00;96.20
46117;DHT22;32591;48.102;11.772;2023-04-26T12:48:11;12.10;94.70
46117;DHT22;32591;48.102;11.772;2023-04-26T12:50:38;11.90;94.30
46117;DHT22;32591;48.102;11.772;2023-04-26T12:53:07;11.70;93.80
46117;DHT22;32591;48.102;11.772;2023-04-26T12:55:35;11.60;94.40
46117;DHT22;32591;48.102;11.772;2023-04-26T12:58:03;11.60;94.70
46117;DHT22;32591;48.102;11.772;2023-04-26T13:00:30;11.60;94.90
46117;DHT22;32591;48.102;11.772;2023-04-26T13:02:57;11.50;93.40
46117;DHT22;32591;48.102;11.772;2023-04-26T13:05:24;11.50;92.90
46117;DHT22;32591;48.102;11.772;2023-04-26T13:07:51;11.40;93.40
46117;DHT22;32591;48.102;11.772;2023-04-26T13:10:20;11.50;93.60
46117;DHT22;32591;48.102;11.772;2023-04-26T13:12:47;11.40;94.40
46117;DHT22;32591;48.102;11.772;2023-04-26T13:15:14;11.40;94.40
46117;DHT22;32591;48.102;11.772;2023-04-26T13:17:41;11.40;95.00
46117;DHT22;32591;48.102;11.772;2023-04-26T13:20:09;11.60;93.30
46117;DHT22;32591;48.102;11.772;2023-04-26T13:22:36;11.90;93.90
46117;DHT22;32591;48.102;11.772;2023-04-26T13:25:07;12.30;93.80
46117;DHT22;32591;48.102;11.772;2023-04-26T13:27:36;12.70;91.70
46117;DHT22;32591;48.102;11.772;2023-04-26T13:30:04;12.60;91.90
46117;DHT22;32591;48.102;11.772;2023-04-26T13:32:32;12.70;92.20
46117;DHT22;32591;48.102;11.772;2023-04-26T13:34:59;12.70;91.50
46117;DHT22;32591;48.102;11.772;2023-04-26T13:37:26;12.60;90.50
46117;DHT22;32591;48.102;11.772;2023-04-26T13:39:53;12.40;91.10
46117;DHT22;32591;48.102;11.772;2023-04-26T13:42:20;12.20;92.50
46117;DHT22;32591;48.102;11.772;2023-04-26T13:44:49;12.10;91.60
46117;DHT22;32591;48.102;11.772;2023-04-26T13:47:16;12.10;92.30
46117;DHT22;32591;48.102;11.772;2023-04-26T13:49:43;12.00;91.80
46117;DHT22;32591;48.102;11.772;2023-04-26T13:52:10;11.90;92.50
46117;DHT22;32591;48.102;11.772;2023-04-26T13:54:37;12.10;92.10
46117;DHT22;32591;48.102;11.772;2023-04-26T13:57:05;12.10;91.70
46117;DHT22;32591;48.102;11.772;2023-04-26T13:59:33;12.20;92.60
46117;DHT22;32591;48.102;11.772;2023-04-26T14:02:01;12.60;91.70
46117;DHT22;32591;48.102;11.772;2023-04-26T14:04:28;12.70;89.80
46117;DHT22;32591;48.102;11.772;2023-04-26T14:06:55;12.60;90.30
46117;DHT22;32591;48.102;11.772;2023-04-26T14:09:23;12.60;90.80
46117;DHT22;32591;48.102;11.772;2023-04-26T14:11:50;12.70;90.00
46117;DHT22;32591;48.102;11.772;2023-04-26T14:14:17;12.60;88.70
46117;DHT22;32591;48.102;11.772;2023-04-26T14:16:44;12.60;90.60
46117;DHT22;32591;48.102;11.772;2023-04-26T14:19:13;12.90;91.10
46117;DHT22;32591;48.102;11.772;2023-04-26T14:21:40;12.90;90.30
46117;DHT22;32591;48.102;11.772;2023-04-26T14:24:07;12.60;90.20
46117;DHT22;32591;48.102;11.772;2023-04-26T14:26:35;12.60;89.40
46117;DHT22;32591;48.102;11.772;2023-04-26T14:29:03;12.50;90.00
46117;DHT22;32591;48.102;11.772;2023-04-26T14:31:31;12.30;89.50
46117;DHT22;32591;48.102;11.772;2023-04-26T14:33:58;12.20;90.50
46117;DHT22;32591;48.102;11.772;2023-04-26T14:36:26;12.00;90.60
46117;DHT22;32591;48.102;11.772;2023-04-26T14:38:53;11.90;90.70
46117;DHT22;32591;48.102;11.772;2023-04-26T14:41:20;11.90;91.50
46117;DHT22;32591;48.102;11.772;2023-04-26T14:43:47;11.90;92.30
46117;DHT22;32591;48.102;11.772;2023-04-26T14:46:15;11.90;91.90
46117;DHT22;32591;48.102;11.772;2023-04-26T14:48:43;12.00;93.40
46117;DHT22;32591;48.102;11.772;2023-04-26T14:51:10;12.00;91.30
46117;DHT22;32591;48.102;11.772;2023-04-26T14:53:38;12.00;91.80
46117;DHT22;32591;48.102;11.772;2023-04-26T14:56:06;12.00;92.10
46117;DHT22;32591;48.102;11.772;2023-04-26T14:58:34;12.00;92.50
46117;DHT22;32591;48.102;11.772;2023-04-26T15:01:01;12.00;92.80
46117;DHT22;32591;48.102;11.772;2023-04-26T15:03:28;12.00;92.20
46117;DHT22;32591;48.102;11.772;2023-04-26T15:05:57;12.10;92.50
46117;DHT22;32591;48.102;11.772;2023-04-26T15:08:24;12.20;92.10
46117;DHT22;32591;48.102;11.772;2023-04-26T15:10:53;12.30;92.40
46117;DHT22;32591;48.102;11.772;2023-04-26T15:13:20;12.40;91.80
46117;DHT22;32591;48.102;11.772;2023-04-26T15:15:47;12.40;92.30
46117;DHT22;32591;48.102;11.772;2023-04-26T15:18:14;12.40;91.90
46117;DHT22;32591;48.102;11.772;2023-04-26T15:20:41;12.30;92.90
46117;DHT22;32591;48.102;11.772;2023-04-26T15:23:08;12.30;93.30
46117;DHT22;32591;48.102;11.772;2023-04-26T15:25:35;12.30;92.00
46117;DHT22;32591;48.102;11.772;2023-04-26T15:28:04;12.40;91.80
46117;DHT22;32591;48.102;11.772;2023-04-26T15:30:31;12.50;91.60
46117;DHT22;32591;48.102;11.772;2023-04-26T15:32:58;12.60;93.20
46117;DHT22;32591;48.102;11.772;2023-04-26T15:35:26;12.80;92.90
46117;DHT22;32591;48.102;11.772;2023-04-26T15:37:52;12.80;92.00
46117;DHT22;32591;48.102;11.772;2023-04-26T15:40:19;12.70;91.10
46117;DHT22;32591;48.102;11.772;2023-04-26T15:42:46;12.70;91.40
46117;DHT22;32591;48.102;11.772;2023-04-26T15:45:17;12.70;92.00
46117;DHT22;32591;48.102;11.772;2023-04-26T15:47:44;12.70;90.80
46117;DHT22;32591;48.102;11.772;2023-04-26T15:50:11;12.70;92.30